Time;durP1;ratioP1;P1;durP2;ratioP2;P2;SDS_P1;SDS_P2;PMS_P1;PMS_P2;Temp;Humidity;BMP_temperature;BMP_pressure;BME280_temperature;BME280_humidity;BME280_pressure;Samples;Min_cycle;Max_cycle;Signal;HPM_P1;HPM_P2
2022/08/19 00:02:11;;;;;;;13.10;8.80;;;;;;;;;;4972975;28;20430;-75
2022/08/19 00:04:37;;;;;;;9.10;8.50;;;;;;;;;;4972350;28;20191;-75
2022/08/19 00:07:05;;;;;;;9.77;8.97;;;;;;;;;;4973161;28;20580;-74
2022/08/19 00:09:31;;;;;;;12.20;8.87;;;;;;;;;;4970976;28;20568;-80
2022/08/19 00:11:57;;;;;;;8.97;8.20;;;;;;;;;;4972526;28;20533;-73
2022/08/19 00:14:24;;;;;;;10.73;8.90;;;;;;;;;;4972286;28;20437;-73
2022/08/19 00:16:53;;;;;;;14.80;8.27;;;;;;;;;;4973480;28;20484;-74
2022/08/19 00:19:20;;;;;;;9.70;8.80;;;;;;;;;;4972824;28;20433;-75
2022/08/19 00:21:46;;;;;;;7.90;7.20;;;;;;;;;;4973481;28;20414;-75
2022/08/19 00:24:13;;;;;;;9.07;8.47;;;;;;;;;;4971658;28;20841;-77
2022/08/19 00:26:39;;;;;;;8.50;7.67;;;;;;;;;;4972721;28;20450;-75
2022/08/19 00:29:06;;;;;;;9.27;8.57;;;;;;;;;;4972525;28;20516;-77
2022/08/19 00:31:32;;;;;;;8.17;7.37;;;;;;;;;;4972494;28;20532;-75
2022/08/19 00:33:58;;;;;;;8.07;7.27;;;;;;;;;;4971720;28;20450;-76
2022/08/19 00:36:24;;;;;;;9.77;8.93;;;;;;;;;;4973414;28;20430;-73
2022/08/19 00:38:51;;;;;;;9.03;8.33;;;;;;;;;;4972497;28;20981;-72
2022/08/19 00:41:20;;;;;;;9.80;9.20;;;;;;;;;;4972830;28;20970;-74
2022/08/19 00:44:05;;;;;;;9.37;8.73;;;;;;;;;;4971928;28;20430;-80
2022/08/19 00:46:33;;;;;;;8.53;7.87;;;;;;;;;;4972169;28;20514;-74
2022/08/19 00:49:00;;;;;;;7.43;7.07;;;;;;;;;;4972212;28;20489;-80
2022/08/19 00:51:28;;;;;;;8.90;8.10;;;;;;;;;;4972038;28;20939;-74
2022/08/19 00:53:55;;;;;;;8.60;7.97;;;;;;;;;;4971498;28;20893;-74
2022/08/19 00:56:21;;;;;;;8.43;7.73;;;;;;;;;;4972114;28;21024;-75
2022/08/19 00:58:47;;;;;;;9.60;8.70;;;;;;;;;;4972398;28;20802;-75
2022/08/19 01:01:13;;;;;;;8.73;8.03;;;;;;;;;;4969904;28;20434;-73
2022/08/19 01:03:39;;;;;;;9.27;8.60;;;;;;;;;;4970640;28;20426;-76
2022/08/19 01:06:06;;;;;;;9.80;8.93;;;;;;;;;;4971268;28;20433;-79
2022/08/19 01:08:32;;;;;;;12.10;8.50;;;;;;;;;;4972006;28;20469;-73
2022/08/19 01:10:59;;;;;;;9.10;8.60;;;;;;;;;;4972219;28;20821;-75
2022/08/19 01:13:27;;;;;;;10.20;9.20;;;;;;;;;;4971982;28;20434;-73
2022/08/19 01:15:55;;;;;;;12.97;9.90;;;;;;;;;;4970903;28;20545;-75
2022/08/19 01:18:22;;;;;;;12.77;9.33;;;;;;;;;;4971836;28;20846;-76
2022/08/19 01:20:48;;;;;;;11.10;10.03;;;;;;;;;;4970760;28;20477;-75
2022/08/19 01:23:14;;;;;;;10.53;9.73;;;;;;;;;;4971675;28;20429;-73
2022/08/19 01:25:47;;;;;;;12.03;10.83;;;;;;;;;;4970658;28;20441;-73
2022/08/19 01:28:18;;;;;;;11.73;10.53;;;;;;;;;;4971603;28;20434;-75
2022/08/19 01:30:44;;;;;;;11.60;10.70;;;;;;;;;;4972084;28;20486;-74
2022/08/19 01:33:11;;;;;;;13.80;10.70;;;;;;;;;;4969581;28;21014;-74
2022/08/19 01:35:37;;;;;;;18.40;11.50;;;;;;;;;;4971513;28;20453;-77
2022/08/19 01:38:07;;;;;;;10.50;9.63;;;;;;;;;;4972232;28;20441;-75
2022/08/19 01:40:34;;;;;;;11.77;10.13;;;;;;;;;;4971117;28;20939;-78
2022/08/19 01:43:00;;;;;;;10.80;9.70;;;;;;;;;;4971201;28;20492;-74
2022/08/19 01:45:28;;;;;;;11.33;10.23;;;;;;;;;;4971024;28;20441;-75
2022/08/19 01:47:54;;;;;;;9.70;8.90;;;;;;;;;;4972143;28;20434;-76
2022/08/19 01:50:20;;;;;;;10.53;9.70;;;;;;;;;;4971035;28;20552;-76
2022/08/19 01:52:46;;;;;;;10.57;9.73;;;;;;;;;;4986184;28;20426;-75
2022/08/19 01:55:14;;;;;;;11.50;10.27;;;;;;;;;;4968645;28;20506;-76
2022/08/19 01:57:41;;;;;;;8.20;7.60;;;;;;;;;;4972114;28;20430;-77
2022/08/19 02:00:09;;;;;;;14.50;9.47;;;;;;;;;;4971453;28;20446;-74
2022/08/19 02:02:35;;;;;;;13.83;9.33;;;;;;;;;;4971228;28;20892;-74
2022/08/19 02:05:01;;;;;;;11.30;10.50;;;;;;;;;;4969740;28;21037;-73
2022/08/19 02:07:28;;;;;;;11.17;10.07;;;;;;;;;;4970998;28;20826;-74
2022/08/19 02:09:55;;;;;;;12.33;10.30;;;;;;;;;;4970814;28;20539;-74
2022/08/19 02:12:21;;;;;;;10.43;9.43;;;;;;;;;;4971300;28;20530;-75
2022/08/19 02:14:47;;;;;;;11.17;10.17;;;;;;;;;;4970171;28;21013;-74
2022/08/19 02:17:13;;;;;;;12.43;9.53;;;;;;;;;;4969369;28;20476;-74
2022/08/19 02:19:40;;;;;;;24.40;9.13;;;;;;;;;;4969536;28;20458;-74
2022/08/19 02:22:06;;;;;;;10.40;9.47;;;;;;;;;;4969830;28;20946;-74
2022/08/19 02:24:32;;;;;;;13.20;9.20;;;;;;;;;;4969027;28;20533;-73
2022/08/19 02:26:58;;;;;;;9.00;8.00;;;;;;;;;;4970375;28;20497;-74
2022/08/19 02:29:24;;;;;;;9.30;8.40;;;;;;;;;;4970917;28;20485;-74
2022/08/19 02:31:51;;;;;;;8.23;7.70;;;;;;;;;;4970708;28;20927;-75
2022/08/19 02:34:17;;;;;;;6.77;6.27;;;;;;;;;;4969045;28;20442;-74
2022/08/19 02:36:43;;;;;;;8.63;7.83;;;;;;;;;;4971364;28;20434;-74
2022/08/19 02:39:09;;;;;;;8.30;7.80;;;;;;;;;;4969796;28;20497;-77
2022/08/19 02:41:35;;;;;;;9.37;8.77;;;;;;;;;;4970845;28;20437;-78
2022/08/19 02:44:03;;;;;;;10.03;9.23;;;;;;;;;;4970496;28;20430;-77
2022/08/19 02:46:31;;;;;;;15.80;8.93;;;;;;;;;;4969030;28;20806;-79
2022/08/19 02:48:58;;;;;;;9.73;8.80;;;;;;;;;;4969296;28;20535;-73
2022/08/19 02:51:25;;;;;;;9.13;8.53;;;;;;;;;;4970863;28;20521;-76
2022/08/19 02:53:51;;;;;;;10.77;7.97;;;;;;;;;;4970181;28;20426;-74
2022/08/19 02:56:18;;;;;;;16.60;9.00;;;;;;;;;;4970145;28;20477;-73
2022/08/19 02:58:44;;;;;;;9.03;8.37;;;;;;;;;;4970769;28;20422;-74
2022/08/19 03:01:10;;;;;;;8.63;7.97;;;;;;;;;;4969334;28;20426;-74
2022/08/19 03:03:37;;;;;;;13.43;8.97;;;;;;;;;;4970956;28;20442;-73
2022/08/19 03:06:04;;;;;;;8.93;7.70;;;;;;;;;;4969052;28;20466;-78
2022/08/19 03:08:30;;;;;;;9.27;8.53;;;;;;;;;;4970315;28;20436;-77
2022/08/19 03:10:56;;;;;;;7.67;7.27;;;;;;;;;;4970300;28;20450;-73
2022/08/19 03:13:23;;;;;;;8.83;8.13;;;;;;;;;;4970624;28;20219;-76
2022/08/19 03:15:49;;;;;;;14.83;7.77;;;;;;;;;;4970079;28;21781;-75
2022/08/19 03:18:15;;;;;;;10.30;9.30;;;;;;;;;;4970345;28;20430;-73
2022/08/19 03:20:42;;;;;;;8.67;8.10;;;;;;;;;;4970425;28;20516;-74
2022/08/19 03:23:08;;;;;;;11.87;9.17;;;;;;;;;;4970632;28;20438;-76
2022/08/19 03:25:40;;;;;;;9.33;8.70;;;;;;;;;;4968226;28;20513;-73
2022/08/19 03:28:07;;;;;;;10.60;9.57;;;;;;;;;;4969719;28;20525;-76
2022/08/19 03:30:33;;;;;;;9.03;8.17;;;;;;;;;;4970477;28;20497;-74
2022/08/19 03:32:59;;;;;;;8.73;8.13;;;;;;;;;;4970420;28;20409;-79
2022/08/19 03:35:25;;;;;;;9.10;8.40;;;;;;;;;;4969950;28;20452;-73
2022/08/19 03:37:52;;;;;;;9.37;8.57;;;;;;;;;;4969675;28;20826;-76
2022/08/19 03:40:18;;;;;;;8.67;7.67;;;;;;;;;;4968926;28;20822;-76
2022/08/19 03:42:45;;;;;;;8.67;7.87;;;;;;;;;;4971125;28;20422;-75
2022/08/19 03:45:12;;;;;;;8.40;7.53;;;;;;;;;;4974236;28;20440;-73
2022/08/19 03:47:38;;;;;;;10.37;9.37;;;;;;;;;;4972947;28;20465;-78
2022/08/19 03:50:04;;;;;;;12.50;8.37;;;;;;;;;;4973694;28;20477;-78
2022/08/19 03:52:30;;;;;;;13.37;8.10;;;;;;;;;;4973526;28;20453;-73
2022/08/19 03:54:56;;;;;;;8.47;8.00;;;;;;;;;;4972892;28;20520;-73
2022/08/19 03:57:22;;;;;;;15.00;8.93;;;;;;;;;;4973758;28;20433;-73
2022/08/19 03:59:48;;;;;;;9.77;9.03;;;;;;;;;;4973530;28;20190;-73
2022/08/19 04:02:15;;;;;;;9.00;8.30;;;;;;;;;;4973330;28;20965;-73
2022/08/19 04:04:43;;;;;;;11.47;10.57;;;;;;;;;;4971546;28;20520;-73
2022/08/19 04:07:09;;;;;;;9.93;9.10;;;;;;;;;;4973675;28;20442;-73
2022/08/19 04:09:38;;;;;;;9.83;9.17;;;;;;;;;;4972855;28;20488;-75
2022/08/19 04:12:05;;;;;;;9.60;8.63;;;;;;;;;;4972213;28;20445;-73
2022/08/19 04:14:31;;;;;;;10.50;9.63;;;;;;;;;;4971521;28;20513;-73
2022/08/19 04:16:59;;;;;;;10.73;9.83;;;;;;;;;;4972882;28;21221;-73
2022/08/19 04:19:26;;;;;;;10.43;9.63;;;;;;;;;;4971923;28;20867;-73
2022/08/19 04:21:52;;;;;;;19.03;9.60;;;;;;;;;;4972570;28;20438;-74
2022/08/19 04:24:19;;;;;;;10.57;9.30;;;;;;;;;;4971885;28;20441;-74
2022/08/19 04:26:45;;;;;;;11.47;10.37;;;;;;;;;;4972737;28;20430;-73
2022/08/19 04:29:13;;;;;;;10.90;9.90;;;;;;;;;;4970605;28;20517;-76
2022/08/19 04:31:40;;;;;;;14.43;12.70;;;;;;;;;;4972655;28;20477;-73
2022/08/19 04:34:07;;;;;;;12.40;11.17;;;;;;;;;;4972557;28;20561;-74
2022/08/19 04:36:34;;;;;;;14.53;12.10;;;;;;;;;;4972688;28;20441;-73
2022/08/19 04:39:05;;;;;;;13.30;12.10;;;;;;;;;;4972468;28;20795;-74
2022/08/19 04:44:17;;;;;;;13.80;9.70;;;;;;;;;;4973165;28;20961;-73
2022/08/19 04:46:43;;;;;;;10.83;9.83;;;;;;;;;;4971362;28;20434;-75
2022/08/19 04:49:11;;;;;;;14.70;10.90;;;;;;;;;;4973119;28;20563;-72
2022/08/19 04:51:36;;;;;;;19.40;10.00;;;;;;;;;;4972335;28;20533;-75
2022/08/19 04:54:03;;;;;;;10.70;9.70;;;;;;;;;;4970892;28;20991;-75
2022/08/19 04:56:29;;;;;;;9.70;8.80;;;;;;;;;;4972213;28;20273;-73
2022/08/19 04:58:56;;;;;;;11.43;10.20;;;;;;;;;;4972350;28;20526;-72
2022/08/19 05:01:24;;;;;;;10.53;9.47;;;;;;;;;;4970753;28;20484;-73
2022/08/19 05:03:51;;;;;;;10.97;9.90;;;;;;;;;;4971080;28;20438;-74
2022/08/19 05:06:17;;;;;;;10.10;9.30;;;;;;;;;;4971048;28;20434;-76
2022/08/19 05:08:44;;;;;;;10.30;9.40;;;;;;;;;;4972057;28;20524;-77
2022/08/19 05:11:20;;;;;;;10.50;9.47;;;;;;;;;;4972309;28;20465;-73
2022/08/19 05:13:48;;;;;;;9.63;8.83;;;;;;;;;;4971662;28;20433;-75
2022/08/19 05:16:14;;;;;;;10.73;8.90;;;;;;;;;;4972796;28;20500;-73
2022/08/19 05:24:10;;;;;;;10.10;9.40;;;;;;;;;;4971307;28;20404;-78
2022/08/19 05:26:37;;;;;;;10.63;9.83;;;;;;;;;;4971484;28;20456;-79
2022/08/19 05:29:03;;;;;;;8.10;7.60;;;;;;;;;;4971924;28;20573;-74
2022/08/19 05:31:30;;;;;;;9.67;9.07;;;;;;;;;;4971970;28;20429;-73
2022/08/19 05:33:58;;;;;;;10.40;9.40;;;;;;;;;;4971071;28;20808;-74
2022/08/19 05:36:24;;;;;;;10.37;9.03;;;;;;;;;;4971570;28;20521;-76
2022/08/19 05:38:51;;;;;;;11.30;9.60;;;;;;;;;;4971178;28;20434;-74
2022/08/19 05:41:17;;;;;;;10.33;9.53;;;;;;;;;;4970593;28;20982;-73
2022/08/19 05:43:43;;;;;;;10.73;9.43;;;;;;;;;;4970727;28;22332;-77
2022/08/19 05:46:16;;;;;;;10.93;8.30;;;;;;;;;;4971311;28;20418;-73
2022/08/19 05:48:42;;;;;;;9.73;9.00;;;;;;;;;;4971211;28;20583;-73
2022/08/19 05:51:08;;;;;;;10.60;9.70;;;;;;;;;;4971922;28;20540;-72
2022/08/19 05:53:35;;;;;;;9.30;8.47;;;;;;;;;;4971180;28;20197;-74
2022/08/19 05:56:20;;;;;;;10.17;9.17;;;;;;;;;;4972765;28;20492;-77
2022/08/19 05:58:46;;;;;;;9.47;8.67;;;;;;;;;;4969926;28;20465;-76
2022/08/19 06:01:13;;;;;;;14.00;9.10;;;;;;;;;;5002299;28;20958;-74
2022/08/19 06:03:39;;;;;;;10.43;9.50;;;;;;;;;;4970515;28;20487;-76
2022/08/19 06:06:07;;;;;;;11.17;10.03;;;;;;;;;;4971848;28;20438;-72
2022/08/19 06:08:33;;;;;;;9.67;8.60;;;;;;;;;;4970628;28;20438;-74
2022/08/19 06:11:11;;;;;;;10.10;9.10;;;;;;;;;;4970051;28;20968;-75
2022/08/19 06:13:38;;;;;;;9.83;8.50;;;;;;;;;;4970628;28;20433;-78
2022/08/19 06:16:04;;;;;;;9.80;9.00;;;;;;;;;;4970544;28;20544;-73
2022/08/19 06:18:30;;;;;;;9.47;8.57;;;;;;;;;;4970791;28;20422;-76
2022/08/19 06:20:56;;;;;;;10.00;8.03;;;;;;;;;;4970808;28;20957;-80
2022/08/19 06:23:22;;;;;;;9.13;8.43;;;;;;;;;;4970530;28;20417;-73
2022/08/19 06:25:48;;;;;;;15.30;9.03;;;;;;;;;;4971189;28;21732;-76
2022/08/19 06:28:14;;;;;;;9.53;8.70;;;;;;;;;;4968296;28;20430;-80
2022/08/19 06:30:40;;;;;;;12.07;8.70;;;;;;;;;;4970294;28;21893;-78
2022/08/19 06:33:06;;;;;;;7.90;7.40;;;;;;;;;;4968815;28;21067;-84
2022/08/19 06:35:32;;;;;;;9.40;8.43;;;;;;;;;;4969887;28;20446;-81
2022/08/19 06:37:59;;;;;;;8.73;7.93;;;;;;;;;;4969531;28;20940;-72
2022/08/19 06:40:27;;;;;;;8.47;7.87;;;;;;;;;;4970141;28;20430;-74
2022/08/19 06:42:53;;;;;;;8.67;7.80;;;;;;;;;;4969624;28;20441;-74
2022/08/19 06:45:20;;;;;;;7.73;7.23;;;;;;;;;;4970793;28;20922;-73
2022/08/19 06:47:48;;;;;;;8.77;8.27;;;;;;;;;;4970163;28;20502;-74
2022/08/19 06:50:14;;;;;;;10.30;9.30;;;;;;;;;;4970821;28;20489;-73
2022/08/19 06:52:40;;;;;;;11.50;8.37;;;;;;;;;;4968863;28;20448;-79
2022/08/19 06:55:06;;;;;;;9.00;8.20;;;;;;;;;;4969945;28;20568;-76
2022/08/19 06:57:32;;;;;;;12.73;7.80;;;;;;;;;;4968256;28;20450;-75
2022/08/19 06:59:59;;;;;;;11.13;8.30;;;;;;;;;;4969125;28;20484;-75
2022/08/19 07:02:27;;;;;;;6.97;6.47;;;;;;;;;;4970070;28;20517;-77
2022/08/19 07:04:53;;;;;;;9.60;8.77;;;;;;;;;;4969479;28;20524;-75
2022/08/19 07:07:20;;;;;;;8.73;8.20;;;;;;;;;;4970550;28;20438;-76
2022/08/19 07:09:46;;;;;;;9.67;8.77;;;;;;;;;;4969858;28;20486;-75
2022/08/19 07:12:17;;;;;;;9.20;8.50;;;;;;;;;;4969801;28;20438;-78
2022/08/19 07:14:48;;;;;;;9.27;8.00;;;;;;;;;;4968549;28;20194;-75
2022/08/19 07:17:14;;;;;;;9.03;8.23;;;;;;;;;;4969500;28;20426;-74
2022/08/19 07:19:41;;;;;;;8.67;8.03;;;;;;;;;;4972301;28;20447;-78
2022/08/19 07:22:07;;;;;;;7.60;6.87;;;;;;;;;;4973208;28;20492;-74
2022/08/19 07:24:35;;;;;;;9.43;8.10;;;;;;;;;;4971178;28;20441;-74
2022/08/19 07:27:04;;;;;;;8.30;7.90;;;;;;;;;;4973888;28;20462;-74
2022/08/19 07:29:32;;;;;;;9.13;8.37;;;;;;;;;;4973064;28;21003;-75
2022/08/19 07:31:59;;;;;;;8.70;8.20;;;;;;;;;;4972856;28;20473;-74
2022/08/19 07:34:25;;;;;;;8.00;7.30;;;;;;;;;;4971840;28;20448;-69
2022/08/19 07:36:52;;;;;;;10.83;8.33;;;;;;;;;;4973221;28;20437;-74
2022/08/19 07:39:23;;;;;;;7.23;6.80;;;;;;;;;;4974055;28;21093;-74
2022/08/19 07:41:50;;;;;;;8.13;7.60;;;;;;;;;;4972909;28;20452;-74
2022/08/19 07:44:16;;;;;;;8.43;7.83;;;;;;;;;;4973000;28;20438;-79
2022/08/19 07:46:44;;;;;;;11.00;7.93;;;;;;;;;;4972750;28;20941;-74
2022/08/19 07:49:17;;;;;;;8.67;8.07;;;;;;;;;;4971520;28;20687;-77
2022/08/19 07:51:43;;;;;;;9.10;8.27;;;;;;;;;;4972381;28;20501;-77
2022/08/19 07:54:09;;;;;;;8.30;7.50;;;;;;;;;;4971936;28;20469;-74
2022/08/19 07:56:35;;;;;;;9.73;8.60;;;;;;;;;;4973559;28;20536;-75
2022/08/19 07:59:01;;;;;;;9.13;8.50;;;;;;;;;;4971178;28;20186;-73
2022/08/19 08:01:27;;;;;;;9.70;8.67;;;;;;;;;;4974413;28;20195;-81
2022/08/19 08:09:26;;;;;;;10.30;9.53;;;;;;;;;;4972437;28;20473;-75
2022/08/19 08:11:57;;;;;;;11.40;9.17;;;;;;;;;;4973549;28;20492;-80
2022/08/19 08:14:26;;;;;;;11.90;10.40;;;;;;;;;;4972871;28;20977;-79
2022/08/19 08:16:53;;;;;;;12.83;9.50;;;;;;;;;;4954551;28;20435;-75
2022/08/19 08:19:20;;;;;;;10.37;9.50;;;;;;;;;;4973510;28;20984;-83
2022/08/19 08:21:46;;;;;;;14.00;8.90;;;;;;;;;;4973703;28;20806;-79
2022/08/19 08:24:12;;;;;;;16.57;8.57;;;;;;;;;;4972422;28;20457;-79
2022/08/19 08:26:39;;;;;;;9.57;8.97;;;;;;;;;;4971559;28;20437;-73
2022/08/19 08:29:07;;;;;;;9.80;8.60;;;;;;;;;;4972975;28;21277;-77
2022/08/19 08:31:33;;;;;;;10.63;9.63;;;;;;;;;;4972936;28;20445;-84
2022/08/19 08:33:59;;;;;;;10.93;10.10;;;;;;;;;;4972739;28;20452;-78
2022/08/19 08:36:25;;;;;;;16.23;10.73;;;;;;;;;;4972126;28;20795;-79
2022/08/19 08:38:52;;;;;;;15.50;11.20;;;;;;;;;;4972567;28;20178;-78
2022/08/19 08:41:37;;;;;;;9.97;9.17;;;;;;;;;;4972639;28;20433;-75
2022/08/19 08:44:04;;;;;;;11.23;10.27;;;;;;;;;;4969394;28;20437;-83
2022/08/19 08:46:31;;;;;;;12.63;10.63;;;;;;;;;;4971992;28;20930;-74
2022/08/19 08:49:03;;;;;;;13.63;12.33;;;;;;;;;;4972537;28;20469;-75
2022/08/19 08:51:32;;;;;;;13.60;9.83;;;;;;;;;;4972412;28;20493;-77
2022/08/19 08:53:59;;;;;;;12.60;11.53;;;;;;;;;;4970584;28;20529;-81
2022/08/19 08:56:25;;;;;;;12.37;11.37;;;;;;;;;;4972025;28;20532;-80
2022/08/19 08:58:59;;;;;;;11.23;10.07;;;;;;;;;;4972367;28;20926;-79
2022/08/19 09:01:27;;;;;;;13.30;12.00;;;;;;;;;;4970884;28;20445;-75
2022/08/19 09:03:53;;;;;;;12.03;10.87;;;;;;;;;;4970785;28;20954;-80
2022/08/19 09:06:27;;;;;;;11.50;10.40;;;;;;;;;;4972626;28;20448;-79
2022/08/19 09:09:03;;;;;;;13.50;12.23;;;;;;;;;;4972113;28;20475;-79
2022/08/19 09:11:34;;;;;;;13.53;11.60;;;;;;;;;;4968925;28;20458;-78
2022/08/19 09:14:13;;;;;;;11.90;10.90;;;;;;;;;;4968502;28;20441;-82
2022/08/19 09:16:40;;;;;;;12.80;11.67;;;;;;;;;;4971808;28;20442;-79
2022/08/19 09:19:07;;;;;;;15.10;12.40;;;;;;;;;;4969973;28;20449;-82
2022/08/19 09:21:34;;;;;;;13.77;12.47;;;;;;;;;;4971486;28;20441;-81
2022/08/19 09:24:00;;;;;;;14.47;12.90;;;;;;;;;;4970570;28;20790;-83
2022/08/19 09:26:26;;;;;;;14.60;13.13;;;;;;;;;;4971606;28;20544;-81
2022/08/19 09:28:54;;;;;;;14.03;12.83;;;;;;;;;;4972544;28;20466;-82
2022/08/19 09:31:22;;;;;;;15.37;13.77;;;;;;;;;;4972142;28;20434;-83
2022/08/19 09:33:48;;;;;;;16.97;12.20;;;;;;;;;;4970951;28;20441;-77
2022/08/19 09:36:15;;;;;;;13.90;12.70;;;;;;;;;;4969255;28;20454;-83
2022/08/19 09:38:41;;;;;;;17.33;13.27;;;;;;;;;;4971053;28;20486;-80
2022/08/19 09:41:13;;;;;;;14.37;12.97;;;;;;;;;;4971606;28;20434;-81
2022/08/19 09:43:40;;;;;;;12.17;10.97;;;;;;;;;;4970700;28;20442;-82
2022/08/19 09:46:08;;;;;;;12.33;10.97;;;;;;;;;;4970558;28;20444;-76
2022/08/19 09:48:34;;;;;;;13.80;11.87;;;;;;;;;;4971654;28;20809;-81
2022/08/19 09:51:08;;;;;;;14.20;12.90;;;;;;;;;;4971761;28;20461;-79
2022/08/19 09:53:34;;;;;;;12.80;11.57;;;;;;;;;;4970681;28;20422;-83
2022/08/19 09:56:00;;;;;;;15.13;13.67;;;;;;;;;;4971181;28;20474;-82
2022/08/19 09:58:27;;;;;;;25.23;12.07;;;;;;;;;;4971642;28;20496;-77
2022/08/19 10:00:57;;;;;;;13.57;12.07;;;;;;;;;;4972244;28;20472;-82
2022/08/19 10:03:23;;;;;;;12.20;11.10;;;;;;;;;;4970842;28;20425;-77
2022/08/19 10:05:49;;;;;;;13.93;12.63;;;;;;;;;;4971484;28;20450;-82
2022/08/19 10:08:21;;;;;;;13.70;12.40;;;;;;;;;;4970769;28;20461;-83
2022/08/19 10:10:48;;;;;;;13.07;12.03;;;;;;;;;;4970744;28;20509;-80
2022/08/19 10:13:16;;;;;;;15.13;13.53;;;;;;;;;;4970587;28;20434;-83
2022/08/19 10:15:43;;;;;;;15.57;13.40;;;;;;;;;;4970276;28;20430;-82
2022/08/19 10:18:09;;;;;;;15.70;13.87;;;;;;;;;;4971282;28;20927;-77
2022/08/19 10:20:35;;;;;;;16.50;14.90;;;;;;;;;;4970395;28;20437;-73
2022/08/19 10:23:02;;;;;;;17.80;12.90;;;;;;;;;;4968736;28;20430;-78
2022/08/19 10:25:28;;;;;;;15.10;13.50;;;;;;;;;;4969189;28;20783;-80
2022/08/19 10:27:54;;;;;;;21.73;14.90;;;;;;;;;;4970141;28;20433;-82
2022/08/19 10:30:20;;;;;;;15.47;14.07;;;;;;;;;;4969596;28;20899;-78
2022/08/19 10:32:47;;;;;;;15.50;14.10;;;;;;;;;;4968948;28;20485;-82
2022/08/19 10:35:14;;;;;;;14.20;12.77;;;;;;;;;;4969487;28;20469;-82
2022/08/19 10:37:40;;;;;;;15.60;14.10;;;;;;;;;;4969221;28;20520;-83
2022/08/19 10:40:07;;;;;;;17.00;15.00;;;;;;;;;;4968770;28;20442;-82
2022/08/19 10:42:34;;;;;;;14.83;13.43;;;;;;;;;;4968362;28;20436;-77
2022/08/19 10:45:00;;;;;;;16.13;14.20;;;;;;;;;;4968808;28;20441;-83
2022/08/19 10:47:26;;;;;;;14.47;13.17;;;;;;;;;;4984564;28;20498;-80
2022/08/19 10:52:44;;;;;;;17.07;13.80;;;;;;;;;;4969182;28;20453;-79
2022/08/19 10:57:55;;;;;;;14.50;13.00;;;;;;;;;;4973217;28;20556;-80
2022/08/19 11:00:23;;;;;;;15.43;13.80;;;;;;;;;;4971091;28;20464;-79
2022/08/19 11:02:50;;;;;;;15.73;14.27;;;;;;;;;;4972260;28;20440;-79
2022/08/19 11:05:16;;;;;;;16.00;13.47;;;;;;;;;;4974985;28;20449;-83
2022/08/19 11:07:44;;;;;;;15.37;13.77;;;;;;;;;;4974121;28;20582;-76
2022/08/19 11:10:11;;;;;;;16.73;15.07;;;;;;;;;;4973037;28;20527;-79
2022/08/19 11:12:39;;;;;;;14.50;13.20;;;;;;;;;;4973177;28;21037;-79
2022/08/19 11:15:05;;;;;;;19.17;17.27;;;;;;;;;;4972781;28;20446;-84
2022/08/19 11:17:31;;;;;;;15.30;13.70;;;;;;;;;;4974085;28;20453;-77
2022/08/19 11:19:57;;;;;;;16.03;14.47;;;;;;;;;;4974554;28;20512;-75
2022/08/19 11:22:23;;;;;;;17.80;15.30;;;;;;;;;;4973530;28;20931;-76
2022/08/19 11:24:49;;;;;;;14.37;13.07;;;;;;;;;;4973900;28;20463;-79
2022/08/19 11:27:15;;;;;;;10.67;9.73;;;;;;;;;;4975865;28;20468;-75
2022/08/19 11:29:41;;;;;;;16.23;14.30;;;;;;;;;;4972106;28;20537;-85
2022/08/19 11:32:09;;;;;;;16.20;14.60;;;;;;;;;;4970248;28;20521;-74
2022/08/19 11:34:36;;;;;;;19.43;15.23;;;;;;;;;;4972959;28;20458;-74
2022/08/19 11:37:03;;;;;;;16.97;13.20;;;;;;;;;;4971890;28;21460;-74
2022/08/19 11:39:30;;;;;;;12.60;11.30;;;;;;;;;;4973916;28;20500;-74
2022/08/19 11:41:58;;;;;;;16.13;14.30;;;;;;;;;;4973630;28;20914;-76
2022/08/19 11:44:24;;;;;;;18.73;16.50;;;;;;;;;;4972763;28;20501;-78
2022/08/19 11:46:52;;;;;;;17.70;15.33;;;;;;;;;;4973350;28;20426;-75
2022/08/19 11:49:19;;;;;;;17.70;14.87;;;;;;;;;;4972090;28;20873;-72
2022/08/19 11:51:46;;;;;;;19.77;16.00;;;;;;;;;;4972709;28;20955;-76
2022/08/19 11:54:13;;;;;;;17.60;15.70;;;;;;;;;;4972917;28;20464;-73
2022/08/19 11:56:39;;;;;;;18.57;14.70;;;;;;;;;;4971849;28;20452;-74
2022/08/19 11:59:05;;;;;;;18.80;15.13;;;;;;;;;;4973125;28;20939;-74
2022/08/19 12:01:31;;;;;;;17.17;14.90;;;;;;;;;;4972691;28;20537;-74
2022/08/19 12:03:57;;;;;;;16.27;14.70;;;;;;;;;;4972278;28;20871;-74
2022/08/19 12:06:28;;;;;;;16.30;14.70;;;;;;;;;;4972962;28;20969;-74
2022/08/19 12:08:54;;;;;;;21.27;14.67;;;;;;;;;;4972625;28;20560;-74
2022/08/19 12:11:20;;;;;;;23.33;14.40;;;;;;;;;;4974260;28;20535;-73
2022/08/19 12:13:47;;;;;;;12.70;11.60;;;;;;;;;;4972146;28;20426;-73
2022/08/19 12:16:15;;;;;;;14.97;13.57;;;;;;;;;;4973767;28;20448;-75
2022/08/19 12:18:43;;;;;;;15.90;13.90;;;;;;;;;;4973030;28;20445;-73
2022/08/19 12:21:10;;;;;;;17.83;15.17;;;;;;;;;;4971827;28;20456;-75
2022/08/19 12:23:37;;;;;;;16.20;14.80;;;;;;;;;;4971226;28;20508;-73
2022/08/19 12:26:03;;;;;;;17.57;15.63;;;;;;;;;;4969875;28;20489;-73
2022/08/19 12:28:29;;;;;;;14.70;13.30;;;;;;;;;;4972347;28;20433;-72
2022/08/19 12:30:56;;;;;;;14.50;13.13;;;;;;;;;;4971855;28;20555;-76
2022/08/19 12:33:25;;;;;;;15.40;13.50;;;;;;;;;;4972296;28;20915;-75
2022/08/19 12:35:51;;;;;;;20.33;14.27;;;;;;;;;;4972153;28;20833;-75
2022/08/19 12:38:17;;;;;;;15.60;13.47;;;;;;;;;;4972067;28;20438;-73
2022/08/19 12:40:46;;;;;;;11.97;11.00;;;;;;;;;;4971941;28;20448;-74
2022/08/19 12:43:13;;;;;;;11.80;11.00;;;;;;;;;;4972041;28;20438;-75
2022/08/19 12:45:39;;;;;;;29.80;13.40;;;;;;;;;;4971295;28;20422;-80
2022/08/19 12:48:05;;;;;;;22.60;12.03;;;;;;;;;;4971070;28;20846;-83
2022/08/19 12:50:31;;;;;;;12.40;10.57;;;;;;;;;;4969246;28;20997;-84
2022/08/19 12:52:57;;;;;;;11.93;11.03;;;;;;;;;;4971425;28;20434;-82
2022/08/19 12:55:24;;;;;;;14.50;11.80;;;;;;;;;;4970004;28;20330;-85
2022/08/19 12:57:51;;;;;;;10.37;9.57;;;;;;;;;;4971767;28;20890;-85
2022/08/19 13:00:20;;;;;;;10.43;9.60;;;;;;;;;;4972350;28;20532;-83
2022/08/19 13:02:49;;;;;;;11.50;8.50;;;;;;;;;;4971362;28;20430;-87
2022/08/19 13:05:16;;;;;;;10.23;9.43;;;;;;;;;;4972869;28;20437;-87
2022/08/19 13:07:45;;;;;;;10.00;9.33;;;;;;;;;;4971782;28;20433;-85
2022/08/19 13:10:14;;;;;;;10.20;9.60;;;;;;;;;;4972964;28;21000;-78
2022/08/19 13:12:41;;;;;;;13.70;12.40;;;;;;;;;;4971756;28;20434;-80
2022/08/19 13:15:08;;;;;;;9.67;8.97;;;;;;;;;;4971708;28;20438;-83
2022/08/19 13:17:34;;;;;;;9.30;8.57;;;;;;;;;;4971113;28;20461;-82
2022/08/19 13:20:00;;;;;;;9.47;8.97;;;;;;;;;;4972176;28;20465;-78
2022/08/19 13:22:26;;;;;;;11.27;10.40;;;;;;;;;;4971584;28;20444;-84
2022/08/19 13:24:52;;;;;;;11.53;10.70;;;;;;;;;;4970631;28;20202;-87
2022/08/19 13:27:19;;;;;;;10.67;9.87;;;;;;;;;;4970548;28;20447;-84
2022/08/19 13:35:15;;;;;;;10.30;9.33;;;;;;;;;;4971048;28;20428;-84
2022/08/19 13:37:41;;;;;;;10.93;10.03;;;;;;;;;;4971606;28;20445;-79
2022/08/19 13:40:18;;;;;;;10.77;9.77;;;;;;;;;;4971113;28;20490;-80
2022/08/19 13:42:46;;;;;;;10.27;9.47;;;;;;;;;;4970241;28;20205;-84
2022/08/19 13:45:12;;;;;;;9.40;8.60;;;;;;;;;;4971732;28;20428;-79
2022/08/19 13:47:44;;;;;;;9.37;8.77;;;;;;;;;;4971609;28;20473;-85
2022/08/19 13:50:14;;;;;;;10.40;9.33;;;;;;;;;;4970743;28;20502;-85
2022/08/19 13:52:41;;;;;;;9.13;8.63;;;;;;;;;;4971206;28;20476;-85
2022/08/19 13:55:07;;;;;;;10.87;10.07;;;;;;;;;;4970949;28;20572;-85
2022/08/19 13:57:33;;;;;;;8.93;8.33;;;;;;;;;;4971607;28;20428;-86
2022/08/19 13:59:59;;;;;;;9.77;8.87;;;;;;;;;;4971697;28;20460;-78
2022/08/19 14:02:26;;;;;;;9.60;9.00;;;;;;;;;;4970620;28;20437;-84
2022/08/19 14:04:52;;;;;;;9.43;8.83;;;;;;;;;;4969980;28;20438;-80
2022/08/19 14:07:18;;;;;;;9.17;8.33;;;;;;;;;;4971016;28;20441;-81
2022/08/19 14:09:44;;;;;;;12.70;11.60;;;;;;;;;;4970700;28;20493;-87
2022/08/19 14:12:10;;;;;;;12.73;9.10;;;;;;;;;;4971036;28;20186;-80
2022/08/19 14:14:39;;;;;;;17.40;11.03;;;;;;;;;;4971241;28;20809;-76
2022/08/19 14:17:09;;;;;;;21.97;12.07;;;;;;;;;;4971626;28;20434;-76
2022/08/19 14:19:35;;;;;;;14.27;12.27;;;;;;;;;;4969408;28;20448;-74
2022/08/19 14:22:01;;;;;;;22.03;14.10;;;;;;;;;;4970628;28;20449;-74
2022/08/19 14:24:27;;;;;;;20.07;14.10;;;;;;;;;;4970084;28;20472;-80
2022/08/19 14:26:53;;;;;;;22.10;14.57;;;;;;;;;;4971038;28;20438;-84
2022/08/19 14:29:19;;;;;;;26.20;13.93;;;;;;;;;;4971780;28;20473;-81
2022/08/19 14:31:45;;;;;;;22.03;14.30;;;;;;;;;;4972425;28;20449;-81
2022/08/19 14:34:12;;;;;;;18.77;13.70;;;;;;;;;;4970847;28;20867;-78
2022/08/19 14:36:38;;;;;;;15.37;13.83;;;;;;;;;;4970609;28;20449;-83
2022/08/19 14:39:04;;;;;;;14.63;13.37;;;;;;;;;;4971634;28;20421;-74
2022/08/19 14:41:30;;;;;;;15.67;13.60;;;;;;;;;;4971987;28;20448;-78
2022/08/19 14:43:57;;;;;;;13.70;12.60;;;;;;;;;;4969739;28;20438;-77
2022/08/19 14:46:27;;;;;;;14.50;13.37;;;;;;;;;;4971560;28;20577;-81
2022/08/19 14:48:53;;;;;;;14.63;13.20;;;;;;;;;;4969813;28;20460;-82
2022/08/19 14:51:20;;;;;;;16.13;14.10;;;;;;;;;;4970599;28;20474;-80
2022/08/19 14:53:49;;;;;;;14.87;13.50;;;;;;;;;;4970500;28;20433;-83